Northeast, Indiana
Current Conditions -  °F | °C
As of 7:53 PM on Saturday 25 Oct 2014 (Local Time) from KBMG Reporting Station
Clear Clear  
Wind Chill: 60°   Ceiling: Unl
Heat Index: 60°   Visibility: 10mi
Dew Point: 51°   Wind: 5mph
Humidity: 72%   Direction: 260°W
Pressure: 29.96"   Gusts: NA
Location:  38.6433°N, 86.4481°W
Report Text: KBMG 252353Z 26004KT 10SM CLR 16/11 A2996 RMK AO2 SLP142 T01560106 10250 20156 55002
Loading
Personal Weather Stations






























Interactive Weather Map New forecast layout! Learn more

10-Day Weather Forecast

Advertisements
Track Severe Weather on mobile